createdAt,value
2019-03-27T00:00:52.777Z,3.90
2019-03-27T00:03:24.105Z,3.90
2019-03-27T00:05:55.149Z,3.90
2019-03-27T00:08:26.126Z,3.90
2019-03-27T00:10:57.577Z,3.90
2019-03-27T00:13:28.743Z,3.90
2019-03-27T00:15:59.937Z,3.90
2019-03-27T00:18:32.291Z,3.90
2019-03-27T00:21:03.380Z,3.90
2019-03-27T00:23:34.542Z,3.90
2019-03-27T00:26:05.624Z,3.90
2019-03-27T00:28:36.702Z,3.80
2019-03-27T00:31:11.707Z,3.80
2019-03-27T00:33:41.575Z,3.80
2019-03-27T00:36:12.622Z,3.70
2019-03-27T00:38:44.093Z,3.70
2019-03-27T00:41:15.188Z,3.70
2019-03-27T00:43:46.214Z,3.60
2019-03-27T00:46:17.235Z,3.60
2019-03-27T00:48:48.278Z,3.70
2019-03-27T00:51:19.306Z,3.70
2019-03-27T00:53:50.672Z,3.60
2019-03-27T00:56:21.801Z,3.60
2019-03-27T00:58:52.833Z,3.60
2019-03-27T01:01:23.947Z,3.60
2019-03-27T01:03:54.998Z,3.60
2019-03-27T01:06:26.009Z,3.60
2019-03-27T01:08:57.078Z,3.60
2019-03-27T01:11:28.087Z,3.60
2019-03-27T01:13:59.160Z,3.60
2019-03-27T01:16:30.328Z,3.50
2019-03-27T01:19:01.380Z,3.50
2019-03-27T01:21:32.436Z,3.50
2019-03-27T01:24:03.429Z,3.50
2019-03-27T01:26:34.469Z,3.60
2019-03-27T01:29:05.445Z,3.60
2019-03-27T01:31:36.735Z,3.50
2019-03-27T01:34:07.716Z,3.60
2019-03-27T01:36:38.736Z,3.60
2019-03-27T01:39:09.722Z,3.60
2019-03-27T01:41:40.753Z,3.60
2019-03-27T01:44:11.765Z,3.60
2019-03-27T01:46:43.061Z,3.50
2019-03-27T01:49:14.486Z,3.50
2019-03-27T01:51:45.496Z,3.50
2019-03-27T01:54:16.504Z,3.40
2019-03-27T01:56:47.537Z,3.40
2019-03-27T01:59:18.845Z,3.40
2019-03-27T02:01:49.897Z,3.40
2019-03-27T02:04:21.383Z,3.40
2019-03-27T02:06:52.416Z,3.30
2019-03-27T02:09:23.479Z,3.30
2019-03-27T02:11:54.534Z,3.30
2019-03-27T02:14:25.880Z,3.20
2019-03-27T02:16:56.890Z,3.20
2019-03-27T02:19:27.928Z,3.20
2019-03-27T02:21:58.936Z,3.20
2019-03-27T02:24:30.265Z,3.20
2019-03-27T02:27:01.329Z,3.20
2019-03-27T02:29:33.454Z,3.10
2019-03-27T02:32:04.500Z,3.20
2019-03-27T02:34:35.494Z,3.10
2019-03-27T02:37:06.516Z,3.20
2019-03-27T02:39:37.538Z,3.20
2019-03-27T02:42:09.197Z,3.20
2019-03-27T02:44:40.216Z,3.20
2019-03-27T02:47:11.282Z,3.20
2019-03-27T02:49:42.287Z,3.20
2019-03-27T02:52:13.257Z,3.20
2019-03-27T02:54:44.299Z,3.10
2019-03-27T02:57:15.396Z,3.10
2019-03-27T02:59:46.451Z,3.00
2019-03-27T03:02:17.499Z,3.00
2019-03-27T03:04:48.500Z,2.90
2019-03-27T03:07:19.551Z,2.90
2019-03-27T03:09:50.943Z,2.90
2019-03-27T03:12:22.362Z,2.90
2019-03-27T03:14:53.433Z,2.80
2019-03-27T03:17:24.567Z,2.80
2019-03-27T03:19:55.550Z,2.80
2019-03-27T03:22:26.616Z,2.80
2019-03-27T03:24:57.625Z,2.70
2019-03-27T03:27:28.650Z,2.70
2019-03-27T03:30:00.704Z,2.70
2019-03-27T03:32:31.831Z,2.70
2019-03-27T03:35:02.812Z,2.60
2019-03-27T03:37:34.002Z,2.60
2019-03-27T03:40:05.736Z,2.60
2019-03-27T03:42:36.868Z,2.60
2019-03-27T03:45:08.495Z,2.60
2019-03-27T03:47:40.101Z,2.60
2019-03-27T03:50:26.005Z,2.60
2019-03-27T03:52:57.113Z,2.70
2019-03-27T03:55:28.321Z,2.70
2019-03-27T03:57:59.655Z,2.60
2019-03-27T04:00:31.082Z,2.60
2019-03-27T04:03:04.097Z,2.60
2019-03-27T04:05:35.123Z,2.60
2019-03-27T04:08:06.175Z,2.70
2019-03-27T04:10:37.184Z,2.70
2019-03-27T04:13:08.509Z,2.70
2019-03-27T04:15:39.689Z,2.70
2019-03-27T04:18:10.836Z,2.70
2019-03-27T04:20:41.857Z,2.70
2019-03-27T04:23:13.949Z,2.70
2019-03-27T04:26:08.210Z,2.60
2019-03-27T04:28:17.677Z,2.60
2019-03-27T04:30:48.710Z,2.60
2019-03-27T04:33:19.724Z,2.60
2019-03-27T04:35:51.034Z,2.50
2019-03-27T04:38:22.989Z,2.50
2019-03-27T04:40:53.998Z,2.50
2019-03-27T04:43:25.049Z,2.50
2019-03-27T04:45:56.483Z,2.40
2019-03-27T04:48:27.509Z,2.40
2019-03-27T04:50:58.905Z,2.40
2019-03-27T04:53:30.249Z,2.40
2019-03-27T04:56:01.256Z,2.30
2019-03-27T04:58:32.475Z,2.30
2019-03-27T05:01:05.110Z,2.30
2019-03-27T05:03:36.151Z,2.30
2019-03-27T05:06:07.182Z,2.30
2019-03-27T05:08:38.345Z,2.30
2019-03-27T05:11:09.573Z,2.30
2019-03-27T05:13:40.664Z,2.40
2019-03-27T05:16:12.036Z,2.40
2019-03-27T05:18:43.073Z,2.40
2019-03-27T05:21:14.104Z,2.40
2019-03-27T05:23:45.553Z,2.40
2019-03-27T05:26:16.552Z,2.40
2019-03-27T05:28:47.590Z,2.50
2019-03-27T05:31:18.591Z,2.50
2019-03-27T05:33:49.671Z,2.50
2019-03-27T05:36:20.717Z,2.50
2019-03-27T05:38:51.774Z,2.50
2019-03-27T05:41:22.842Z,2.60
2019-03-27T05:43:53.955Z,2.60
2019-03-27T05:46:26.620Z,2.60
2019-03-27T05:48:57.833Z,2.60
2019-03-27T05:51:29.312Z,2.60
2019-03-27T05:54:00.416Z,2.60
2019-03-27T05:56:33.656Z,2.60
2019-03-27T05:59:06.379Z,2.70
2019-03-27T06:01:37.505Z,2.70
2019-03-27T06:04:08.562Z,2.80
2019-03-27T06:06:39.593Z,2.80
2019-03-27T06:09:12.086Z,2.90
2019-03-27T06:11:43.165Z,2.90
2019-03-27T06:14:15.189Z,3.00
2019-03-27T06:16:46.556Z,3.00
2019-03-27T06:19:17.879Z,3.10
2019-03-27T06:21:48.888Z,3.10
2019-03-27T06:24:19.924Z,3.20
2019-03-27T06:26:50.945Z,3.30
2019-03-27T06:29:21.979Z,3.40
2019-03-27T06:31:52.980Z,3.40
2019-03-27T06:34:24.028Z,3.50
2019-03-27T06:36:55.048Z,3.60
2019-03-27T06:39:26.381Z,3.60
2019-03-27T06:41:57.764Z,3.70
2019-03-27T06:44:28.778Z,3.80
2019-03-27T06:47:00.878Z,3.90
2019-03-27T06:49:30.608Z,4.00
2019-03-27T06:52:00.134Z,4.00
2019-03-27T06:54:30.116Z,4.10
2019-03-27T06:57:01.096Z,4.20
2019-03-27T06:59:30.839Z,4.20
2019-03-27T07:02:00.384Z,4.20
2019-03-27T07:04:29.909Z,4.30
2019-03-27T07:06:59.473Z,4.40
2019-03-27T07:09:28.999Z,4.40
2019-03-27T07:11:58.601Z,4.50
2019-03-27T07:14:28.389Z,4.50
2019-03-27T07:16:59.156Z,4.60
2019-03-27T07:19:29.002Z,4.70
2019-03-27T07:21:58.516Z,4.80
2019-03-27T07:24:28.050Z,4.90
2019-03-27T07:26:57.562Z,5.00
2019-03-27T07:29:27.209Z,5.10
2019-03-27T07:31:56.720Z,5.20
2019-03-27T07:34:26.261Z,5.40
2019-03-27T07:36:56.314Z,5.50
2019-03-27T07:39:26.003Z,5.60
2019-03-27T07:41:55.517Z,5.80
2019-03-27T07:44:25.046Z,5.90
2019-03-27T07:46:54.565Z,6.00
2019-03-27T07:49:24.102Z,6.10
2019-03-27T07:51:53.612Z,6.20
2019-03-27T07:54:23.154Z,6.30
2019-03-27T07:56:52.691Z,6.30
2019-03-27T07:59:22.208Z,6.40
2019-03-27T08:01:51.753Z,6.50
2019-03-27T08:04:21.600Z,6.60
2019-03-27T08:06:51.105Z,6.70
2019-03-27T08:09:22.997Z,6.80
2019-03-27T08:11:51.845Z,6.90
2019-03-27T08:14:21.710Z,7.00
2019-03-27T08:16:51.256Z,7.10
2019-03-27T08:19:20.778Z,7.20
2019-03-27T08:21:50.279Z,7.20
2019-03-27T08:24:19.789Z,7.30
2019-03-27T08:26:49.317Z,7.40
2019-03-27T08:29:18.820Z,7.50
2019-03-27T08:31:48.345Z,7.60
2019-03-27T08:34:17.861Z,7.70
2019-03-27T08:36:47.401Z,7.70
2019-03-27T08:39:16.924Z,7.80
2019-03-27T08:41:46.516Z,7.90
2019-03-27T08:44:16.461Z,8.00
2019-03-27T08:46:45.969Z,8.10
2019-03-27T08:49:21.985Z,8.10
2019-03-27T08:51:47.105Z,8.10
2019-03-27T08:54:16.617Z,8.20
2019-03-27T08:56:46.188Z,8.30
2019-03-27T08:59:15.972Z,8.30
2019-03-27T09:01:45.499Z,8.40
2019-03-27T09:04:15.084Z,8.50
2019-03-27T09:06:44.633Z,8.60
2019-03-27T09:09:14.172Z,8.80
2019-03-27T09:11:43.701Z,8.90
2019-03-27T09:14:13.221Z,9.10
2019-03-27T09:16:42.746Z,9.20
2019-03-27T09:19:12.277Z,9.30
2019-03-27T09:21:41.925Z,9.50
2019-03-27T09:24:11.517Z,9.60
2019-03-27T09:26:41.041Z,9.80
2019-03-27T09:29:10.550Z,9.90
2019-03-27T09:31:45.016Z,10.00
2019-03-27T09:34:11.461Z,10.10
2019-03-27T09:36:40.998Z,10.20
2019-03-27T09:39:10.812Z,10.30
2019-03-27T09:41:40.335Z,10.40
2019-03-27T09:44:09.860Z,10.50
2019-03-27T09:46:39.441Z,10.60
2019-03-27T09:49:08.977Z,10.70
2019-03-27T09:51:38.577Z,10.80
2019-03-27T09:54:08.101Z,11.00
2019-03-27T09:56:37.764Z,11.20
2019-03-27T09:59:07.337Z,11.40
2019-03-27T10:01:37.000Z,11.60
2019-03-27T10:04:06.634Z,11.80
2019-03-27T10:06:36.219Z,11.80
2019-03-27T10:09:07.354Z,12.00
2019-03-27T10:11:36.885Z,12.20
2019-03-27T10:14:06.417Z,12.50
2019-03-27T10:16:36.046Z,12.70
2019-03-27T10:19:05.601Z,12.80
2019-03-27T10:21:35.479Z,13.20
2019-03-27T10:24:06.050Z,13.60
2019-03-27T10:26:35.576Z,14.00
2019-03-27T10:29:05.243Z,14.40
2019-03-27T10:31:34.766Z,14.60
2019-03-27T10:34:04.480Z,14.90
2019-03-27T10:36:34.040Z,15.10
2019-03-27T10:39:05.699Z,15.50
2019-03-27T10:41:35.261Z,15.90
2019-03-27T10:44:04.821Z,16.30
2019-03-27T10:46:34.361Z,16.70
2019-03-27T10:49:04.006Z,17.20
2019-03-27T10:51:33.556Z,17.40
2019-03-27T10:54:03.088Z,17.20
2019-03-27T10:56:33.370Z,17.40
2019-03-27T10:59:02.919Z,17.50
2019-03-27T11:01:33.031Z,17.30
2019-03-27T11:04:02.571Z,17.50
2019-03-27T11:06:32.097Z,17.90
2019-03-27T11:09:01.637Z,18.50
2019-03-27T11:11:32.942Z,19.10
2019-03-27T11:14:02.476Z,19.60
2019-03-27T11:16:32.075Z,20.00
2019-03-27T11:19:01.596Z,19.80
2019-03-27T11:21:31.123Z,19.70
2019-03-27T11:24:00.694Z,19.80
2019-03-27T11:26:30.509Z,19.70
2019-03-27T11:29:00.124Z,19.50
2019-03-27T11:31:29.667Z,19.00
2019-03-27T11:33:59.194Z,18.70
2019-03-27T11:36:29.123Z,18.40
2019-03-27T11:38:58.662Z,18.30
2019-03-27T11:41:28.191Z,18.80
2019-03-27T11:43:57.716Z,18.90
2019-03-27T11:46:27.243Z,18.80
2019-03-27T11:48:56.764Z,18.30
2019-03-27T11:51:26.400Z,18.50
2019-03-27T11:53:55.910Z,18.90
2019-03-27T11:56:25.443Z,18.90
2019-03-27T11:58:54.945Z,18.70
2019-03-27T12:01:24.622Z,18.30
2019-03-27T12:03:54.189Z,18.00
2019-03-27T12:06:23.746Z,18.20
2019-03-27T12:08:53.377Z,18.70
2019-03-27T12:11:23.275Z,19.60
2019-03-27T12:13:52.798Z,20.20
2019-03-27T12:16:22.479Z,20.50
2019-03-27T12:18:52.042Z,20.40
2019-03-27T12:21:21.634Z,20.60
2019-03-27T12:23:51.281Z,21.20
2019-03-27T12:26:20.854Z,21.00
2019-03-27T12:28:50.525Z,20.40
2019-03-27T12:31:20.078Z,19.50
2019-03-27T12:33:49.970Z,18.70
2019-03-27T12:36:19.500Z,18.60
2019-03-27T12:38:49.020Z,18.70
2019-03-27T12:41:18.621Z,18.80
2019-03-27T12:43:48.411Z,18.40
2019-03-27T12:46:18.111Z,18.40
2019-03-27T12:48:47.709Z,19.30
2019-03-27T12:51:17.278Z,19.80
2019-03-27T12:53:46.781Z,20.60
2019-03-27T12:56:17.050Z,21.60
2019-03-27T12:58:47.576Z,21.80
2019-03-27T13:01:17.105Z,21.00
2019-03-27T13:03:46.642Z,20.00
2019-03-27T13:06:16.216Z,19.10
2019-03-27T13:08:45.756Z,18.20
2019-03-27T13:11:15.266Z,17.40
2019-03-27T13:13:44.873Z,16.70
2019-03-27T13:16:14.487Z,16.70
2019-03-27T13:18:44.059Z,18.00
2019-03-27T13:21:25.780Z,19.30
2019-03-27T13:23:44.826Z,19.80
2019-03-27T13:26:14.395Z,19.30
2019-03-27T13:28:49.004Z,18.60
2019-03-27T13:31:15.269Z,18.50
2019-03-27T13:33:45.880Z,18.40
2019-03-27T13:36:15.434Z,17.80
2019-03-27T13:38:44.973Z,17.60
2019-03-27T13:41:14.500Z,18.60
2019-03-27T13:43:44.140Z,19.80
2019-03-27T13:46:13.664Z,20.80
2019-03-27T13:48:43.216Z,21.30
2019-03-27T13:51:12.800Z,22.30
2019-03-27T13:53:42.360Z,23.10
2019-03-27T13:56:12.015Z,23.70
2019-03-27T13:58:41.528Z,24.30
2019-03-27T14:01:12.961Z,24.80
2019-03-27T14:03:42.641Z,24.30
2019-03-27T14:06:12.266Z,23.20
2019-03-27T14:08:41.899Z,22.00
2019-03-27T14:11:11.552Z,20.90
2019-03-27T14:13:43.460Z,20.10
2019-03-27T14:16:12.465Z,19.50
2019-03-27T14:18:42.042Z,19.00
2019-03-27T14:21:11.576Z,18.60
2019-03-27T14:23:41.189Z,18.40
2019-03-27T14:26:10.861Z,18.20
2019-03-27T14:28:40.392Z,17.80
2019-03-27T14:31:09.923Z,17.40
2019-03-27T14:33:39.507Z,17.00
2019-03-27T14:36:09.116Z,16.60
2019-03-27T14:38:38.684Z,15.90
2019-03-27T14:41:09.320Z,15.50
2019-03-27T14:43:38.929Z,15.20
2019-03-27T14:46:08.573Z,15.00
2019-03-27T14:48:38.280Z,14.90
2019-03-27T14:51:07.914Z,14.70
2019-03-27T14:53:37.471Z,14.60
2019-03-27T14:56:07.124Z,14.40
2019-03-27T14:58:37.733Z,14.30
2019-03-27T15:01:07.303Z,14.30
2019-03-27T15:03:37.022Z,14.20
2019-03-27T15:06:06.557Z,14.20
2019-03-27T15:08:36.219Z,14.10
2019-03-27T15:11:05.758Z,14.00
2019-03-27T15:13:35.314Z,14.00
2019-03-27T15:16:04.903Z,13.90
2019-03-27T15:18:34.458Z,13.90
2019-03-27T15:21:04.103Z,13.90
2019-03-27T15:23:33.632Z,14.10
2019-03-27T15:26:03.156Z,14.40
2019-03-27T15:28:32.754Z,14.60
2019-03-27T15:31:02.399Z,14.60
2019-03-27T15:33:33.625Z,14.30
2019-03-27T15:36:05.013Z,14.20
2019-03-27T15:38:36.115Z,14.10
2019-03-27T15:41:07.521Z,13.90
2019-03-27T15:43:38.714Z,13.80
2019-03-27T15:46:09.738Z,13.90
2019-03-27T15:48:41.034Z,14.30
2019-03-27T15:51:12.194Z,14.70
2019-03-27T15:53:43.303Z,15.10
2019-03-27T15:56:14.408Z,15.20
2019-03-27T15:58:47.501Z,15.30
2019-03-27T16:01:20.155Z,15.20
2019-03-27T16:03:51.705Z,15.00
2019-03-27T16:06:23.715Z,14.80
2019-03-27T16:08:59.911Z,14.70
2019-03-27T16:11:31.443Z,14.70
2019-03-27T16:14:11.403Z,14.90
2019-03-27T16:17:01.228Z,15.30
2019-03-27T16:19:35.098Z,15.60
2019-03-27T16:22:10.881Z,15.80
2019-03-27T16:25:41.365Z,16.00
2019-03-27T16:28:17.997Z,16.00
2019-03-27T16:31:28.078Z,15.80
2019-03-27T16:33:58.706Z,16.00
2019-03-27T16:36:47.045Z,16.20
2019-03-27T16:39:24.149Z,16.10
2019-03-27T16:42:00.460Z,15.90
2019-03-27T16:45:14.023Z,15.40
2019-03-27T16:47:49.987Z,14.80
2019-03-27T16:50:21.579Z,14.10
2019-03-27T16:53:03.434Z,13.70
2019-03-27T16:55:27.426Z,13.30
2019-03-27T16:57:59.182Z,13.00
2019-03-27T17:00:30.591Z,12.70
2019-03-27T17:03:39.553Z,12.40
2019-03-27T17:07:01.192Z,12.20
2019-03-27T17:09:38.155Z,12.00
2019-03-27T17:12:17.711Z,11.70
2019-03-27T17:14:57.236Z,11.50
2019-03-27T17:17:30.152Z,11.40
2019-03-27T17:20:17.659Z,11.30
2019-03-27T17:22:49.463Z,11.20
2019-03-27T17:25:21.109Z,11.10
2019-03-27T17:27:55.607Z,11.00
2019-03-27T17:30:26.272Z,10.90
2019-03-27T17:32:57.919Z,10.80
2019-03-27T17:35:29.377Z,10.70
2019-03-27T17:38:00.906Z,10.70
2019-03-27T17:40:42.383Z,10.50
2019-03-27T17:43:16.506Z,10.40
2019-03-27T17:45:48.583Z,10.40
2019-03-27T17:48:37.175Z,10.30
2019-03-27T17:51:08.558Z,10.20
2019-03-27T17:54:52.328Z,10.10
2019-03-27T17:57:09.815Z,10.00
2019-03-27T18:00:13.790Z,9.90
2019-03-27T18:02:45.762Z,9.80
2019-03-27T18:05:17.580Z,9.80
2019-03-27T18:07:50.467Z,9.70
2019-03-27T18:10:21.841Z,9.60
2019-03-27T18:12:53.370Z,9.60
2019-03-27T18:15:24.778Z,9.50
2019-03-27T18:17:56.694Z,9.40
2019-03-27T18:20:28.235Z,9.40
2019-03-27T18:23:17.736Z,9.30
2019-03-27T18:26:11.260Z,9.20
2019-03-27T18:28:42.787Z,9.20
2019-03-27T18:31:14.131Z,9.10
2019-03-27T18:33:45.588Z,9.10
2019-03-27T18:36:16.967Z,9.10
2019-03-27T18:38:48.428Z,9.00
2019-03-27T18:41:20.227Z,9.00
2019-03-27T18:43:51.990Z,8.90
2019-03-27T18:46:23.406Z,8.80
2019-03-27T18:48:56.045Z,8.80
2019-03-27T18:51:27.515Z,8.70
2019-03-27T18:54:00.230Z,8.70
2019-03-27T18:56:31.817Z,8.60
2019-03-27T18:59:03.479Z,8.60
2019-03-27T19:01:34.821Z,8.60
2019-03-27T19:04:07.558Z,8.50
2019-03-27T19:06:39.031Z,8.50
2019-03-27T19:09:10.921Z,8.50
2019-03-27T19:12:00.217Z,8.50
2019-03-27T19:14:40.786Z,8.50
2019-03-27T19:17:12.746Z,8.40
2019-03-27T19:19:44.207Z,8.40
2019-03-27T19:22:16.412Z,8.40
2019-03-27T19:24:48.025Z,8.40
2019-03-27T19:27:20.124Z,8.30
2019-03-27T19:29:51.618Z,8.30
2019-03-27T19:32:23.160Z,8.20
2019-03-27T19:34:54.781Z,8.20
2019-03-27T19:37:28.228Z,8.20
2019-03-27T19:40:01.098Z,8.10
2019-03-27T19:42:33.512Z,8.10
2019-03-27T19:45:05.480Z,8.10
2019-03-27T19:47:39.224Z,8.00
2019-03-27T19:50:10.786Z,8.00
2019-03-27T19:52:42.217Z,8.00
2019-03-27T19:55:13.641Z,7.90
2019-03-27T19:57:45.245Z,7.90
2019-03-27T20:00:17.631Z,7.90
2019-03-27T20:02:49.563Z,7.80
2019-03-27T20:05:21.620Z,7.70
2019-03-27T20:07:53.182Z,7.70
2019-03-27T20:10:24.645Z,7.70
2019-03-27T20:12:56.508Z,7.70
2019-03-27T20:15:27.982Z,7.70
2019-03-27T20:17:59.995Z,7.60
2019-03-27T20:20:31.493Z,7.60
2019-03-27T20:23:14.367Z,7.60
2019-03-27T20:25:36.014Z,7.60
2019-03-27T20:28:08.469Z,7.60
2019-03-27T20:30:39.886Z,7.50
2019-03-27T20:33:11.256Z,7.50
2019-03-27T20:35:42.726Z,7.50
2019-03-27T20:38:14.726Z,7.40
2019-03-27T20:40:57.309Z,7.40
2019-03-27T20:43:31.607Z,7.30
2019-03-27T20:46:03.783Z,7.20
2019-03-27T20:48:35.649Z,7.20
2019-03-27T20:51:07.260Z,7.20
2019-03-27T20:53:38.894Z,7.10
2019-03-27T20:56:11.072Z,7.10
2019-03-27T20:58:42.971Z,7.10
2019-03-27T21:01:14.621Z,7.10
2019-03-27T21:03:46.305Z,7.10
2019-03-27T21:06:17.734Z,7.10
2019-03-27T21:08:49.146Z,7.10
2019-03-27T21:11:21.693Z,7.10
2019-03-27T21:13:59.250Z,7.00
2019-03-27T21:16:31.324Z,7.00
2019-03-27T21:19:07.690Z,7.00
2019-03-27T21:21:45.885Z,7.00
2019-03-27T21:24:18.194Z,7.00
2019-03-27T21:26:49.941Z,6.90
2019-03-27T21:29:21.524Z,6.90
2019-03-27T21:31:53.025Z,6.90
2019-03-27T21:34:26.310Z,6.90
2019-03-27T21:36:57.896Z,6.90
2019-03-27T21:39:29.888Z,6.80
2019-03-27T21:42:01.986Z,6.80
2019-03-27T21:44:33.815Z,6.70
2019-03-27T21:47:05.803Z,6.70
2019-03-27T21:49:37.948Z,6.70
2019-03-27T21:52:09.714Z,6.60
2019-03-27T21:55:22.705Z,6.60
2019-03-27T21:58:02.322Z,6.60
2019-03-27T22:00:47.662Z,6.50
2019-03-27T22:03:24.026Z,6.50
2019-03-27T22:05:57.073Z,6.50
2019-03-27T22:08:32.538Z,6.50
2019-03-27T22:12:12.485Z,6.50
2019-03-27T22:15:25.457Z,6.40
2019-03-27T22:17:58.187Z,6.40
2019-03-27T22:20:39.334Z,6.40
2019-03-27T22:23:09.840Z,6.40
2019-03-27T22:25:41.013Z,6.30
2019-03-27T22:28:12.468Z,6.30
2019-03-27T22:30:43.738Z,6.30
2019-03-27T22:33:14.818Z,6.30
2019-03-27T22:35:45.903Z,6.30
2019-03-27T22:38:16.893Z,6.30
2019-03-27T22:40:48.013Z,6.20
2019-03-27T22:43:19.449Z,6.20
2019-03-27T22:45:50.958Z,6.20
2019-03-27T22:48:21.968Z,6.10
2019-03-27T22:50:53.661Z,6.10
2019-03-27T22:53:24.720Z,6.10
2019-03-27T22:55:55.928Z,6.10
2019-03-27T22:58:27.414Z,6.00
2019-03-27T23:00:58.845Z,5.90
2019-03-27T23:03:29.971Z,5.90
2019-03-27T23:06:01.086Z,5.90
2019-03-27T23:08:32.385Z,5.90
2019-03-27T23:11:03.604Z,5.90
2019-03-27T23:13:34.639Z,5.80
2019-03-27T23:16:05.838Z,5.80
2019-03-27T23:18:36.893Z,5.80
2019-03-27T23:21:08.011Z,5.80
2019-03-27T23:23:39.131Z,5.80
2019-03-27T23:26:10.146Z,5.80
2019-03-27T23:28:41.316Z,5.80
2019-03-27T23:31:12.337Z,5.80
2019-03-27T23:33:43.344Z,5.80
2019-03-27T23:36:14.514Z,5.80
2019-03-27T23:38:45.783Z,5.70
2019-03-27T23:41:16.801Z,5.70
2019-03-27T23:43:48.176Z,5.70
2019-03-27T23:46:19.228Z,5.60
2019-03-27T23:48:50.686Z,5.60
2019-03-27T23:51:21.727Z,5.50
2019-03-27T23:53:52.737Z,5.50
2019-03-27T23:56:23.788Z,5.50
2019-03-27T23:58:54.814Z,5.40
